Time;durP1;ratioP1;P1;durP2;ratioP2;P2;SDS_P1;SDS_P2;PMS_P1;PMS_P2;Temp;Humidity;BMP_temperature;BMP_pressure;BME280_temperature;BME280_humidity;BME280_pressure;Samples;Min_cycle;Max_cycle;Signal;HPM_P1;HPM_P2
2022/12/15 00:40:17;;;;;;;19.40;9.27;;;;;;;2.75;87.72;100162.72;123384;1099;104274;-78
2022/12/15 00:42:48;;;;;;;27.83;9.90;;;;;;;2.75;88.88;100149.77;123219;1099;104318;-78
2022/12/15 00:45:19;;;;;;;20.80;9.10;;;;;;;2.76;88.44;100141.17;123567;1099;104347;-77
2022/12/15 00:47:50;;;;;;;21.13;8.77;;;;;;;2.77;87.86;100149.05;123457;1099;104676;-77
2022/12/15 01:21:23;;;;;;;20.70;9.40;;;;;;;3.09;90.10;100144.05;123578;1099;104281;-79
2022/12/15 01:23:55;;;;;;;21.80;9.30;;;;;;;3.13;89.91;100138.21;123659;1099;104336;-77
2022/12/15 01:26:26;;;;;;;24.37;9.53;;;;;;;3.15;89.42;100137.52;123597;1099;104430;-77
2022/12/15 01:28:57;;;;;;;19.57;8.57;;;;;;;3.17;90.04;100141.08;123589;1099;104398;-78
2022/12/15 01:31:28;;;;;;;20.90;8.77;;;;;;;3.20;89.35;100137.78;123609;1099;104696;-77
2022/12/15 01:33:59;;;;;;;21.40;8.17;;;;;;;3.23;90.11;100140.56;123744;1099;104303;-78
2022/12/15 01:36:30;;;;;;;20.30;8.30;;;;;;;3.23;89.34;100141.45;123773;1099;104348;-78
2022/12/15 01:39:02;;;;;;;21.57;9.10;;;;;;;3.25;89.97;100133.76;123715;1099;104632;-78
2022/12/15 01:41:33;;;;;;;21.53;9.10;;;;;;;3.27;90.54;100136.44;123689;1099;104277;-78
2022/12/15 01:44:18;;;;;;;20.40;9.17;;;;;;;3.28;90.19;100133.05;123494;1099;104277;-78
2022/12/15 01:46:52;;;;;;;20.67;8.67;;;;;;;3.29;90.17;100130.55;123759;1099;104271;-79
2022/12/15 01:49:28;;;;;;;24.60;9.55;;;;;;;3.32;90.33;100145.37;123778;1099;104354;-79
2022/12/15 01:52:02;;;;;;;19.23;8.43;;;;;;;3.33;89.80;100147.17;123746;1099;104411;-78
2022/12/15 01:54:38;;;;;;;22.03;8.73;;;;;;;3.36;91.19;100142.17;123742;1099;104271;-78
2022/12/15 01:57:17;;;;;;;23.10;8.85;;;;;;;3.38;90.71;100137.95;123821;1099;104290;-79
2022/12/15 01:59:52;;;;;;;23.03;9.40;;;;;;;3.40;90.85;100125.99;123754;1099;104242;-78
2022/12/15 02:02:27;;;;;;;26.83;9.33;;;;;;;3.41;90.16;100127.76;123724;1099;104258;-78
2022/12/15 02:05:00;;;;;;;21.83;8.80;;;;;;;3.44;91.22;100119.27;123303;1099;104274;-78
2022/12/15 02:07:31;;;;;;;25.70;9.20;;;;;;;3.46;91.08;100121.16;123678;1099;104197;-78
2022/12/15 02:10:06;;;;;;;24.13;10.40;;;;;;;3.49;91.13;100134.31;123327;1099;104332;-77
2022/12/15 02:12:44;;;;;;;21.75;9.15;;;;;;;3.50;91.52;100128.30;123758;1099;104226;-76
2022/12/15 02:15:25;;;;;;;24.15;10.00;;;;;;;3.52;92.17;100126.70;123696;1099;104495;-77
2022/12/15 02:18:05;;;;;;;24.03;9.90;;;;;;;3.54;91.59;100113.83;123782;1099;104257;-78
2022/12/15 02:20:46;;;;;;;22.43;9.83;;;;;;;3.56;91.48;100117.39;123906;1099;104258;-77
2022/12/15 02:23:53;;;;;;;22.17;10.00;;;;;;;3.58;91.29;100123.55;123985;1098;104303;-76
2022/12/15 02:26:55;;;;;;;23.97;11.10;;;;;;;3.60;92.01;100122.84;123865;1099;104242;-77
2022/12/15 02:29:56;;;;;;;24.50;10.63;;;;;;;3.62;91.10;100114.27;123563;1099;104405;-76
2022/12/15 02:32:32;;;;;;;22.57;10.00;;;;;;;3.63;91.20;100114.36;123688;1099;104181;-78
2022/12/15 02:35:08;;;;;;;25.10;11.90;;;;;;;3.64;91.21;100102.27;123521;1099;104226;-78
2022/12/15 02:37:41;;;;;;;25.87;11.43;;;;;;;3.65;91.70;100098.88;123571;1099;104350;-77
2022/12/15 02:40:12;;;;;;;24.70;10.67;;;;;;;3.65;91.97;100089.38;123761;1099;104255;-78
2022/12/15 02:42:49;;;;;;;24.80;9.87;;;;;;;3.65;91.14;100102.35;123625;1099;104383;-77
2022/12/15 02:45:27;;;;;;;23.13;10.70;;;;;;;3.66;92.00;100101.55;123652;1099;104364;-78
2022/12/15 02:48:12;;;;;;;26.20;11.23;;;;;;;3.67;91.73;100102.44;123614;1098;104297;-78
2022/12/15 02:50:51;;;;;;;;;;;;;;;3.69;94.43;100095.63;123589;1098;104377;-78
2022/12/15 02:53:42;;;;;;;26.53;11.73;;;;;;;3.68;92.38;100086.08;123561;1099;104236;-77
2022/12/15 02:56:24;;;;;;;28.73;12.00;;;;;;;3.68;92.32;100083.48;123544;1099;104357;-77
2022/12/15 02:59:02;;;;;;;24.10;12.00;;;;;;;3.68;92.51;100078.29;123540;1099;104364;-76
2022/12/15 03:01:39;;;;;;;24.57;11.67;;;;;;;3.69;94.12;100077.45;123817;1099;104245;-77
2022/12/15 03:04:13;;;;;;;29.23;11.83;;;;;;;3.67;92.50;100072.19;123819;1099;104351;-77
2022/12/15 03:06:44;;;;;;;26.48;11.90;;;;;;;3.69;91.90;100061.89;123670;1099;104396;-77
2022/12/15 03:09:15;;;;;;;26.93;12.93;;;;;;;3.70;92.86;100053.31;123569;1099;104434;-77
2022/12/15 03:11:47;;;;;;;28.80;13.13;;;;;;;3.68;92.54;100044.55;123548;1099;104336;-77
2022/12/15 03:14:18;;;;;;;25.63;11.90;;;;;;;3.70;92.61;100045.52;123609;1099;104277;-77
2022/12/15 03:16:49;;;;;;;28.33;12.73;;;;;;;3.69;92.55;100036.83;123575;1099;104278;-77
2022/12/15 03:19:21;;;;;;;29.10;12.60;;;;;;;3.69;92.89;100038.53;123297;1099;104408;-77
2022/12/15 03:21:52;;;;;;;29.00;12.97;;;;;;;3.69;92.45;100034.23;123517;1099;104495;-78
2022/12/15 03:24:23;;;;;;;28.37;13.27;;;;;;;3.69;92.57;100028.16;123473;1099;104306;-77
2022/12/15 03:26:55;;;;;;;29.87;12.53;;;;;;;3.70;93.27;100029.95;123499;1099;104252;-77
2022/12/15 03:29:26;;;;;;;32.97;13.03;;;;;;;3.70;92.74;100035.14;123470;1099;104255;-78
2022/12/15 03:31:58;;;;;;;30.80;13.00;;;;;;;3.69;92.58;100028.16;123560;1099;104259;-76
2022/12/15 03:34:29;;;;;;;28.30;13.63;;;;;;;3.70;92.38;100024.77;123422;1098;104393;-76
2022/12/15 03:37:00;;;;;;;30.53;13.33;;;;;;;3.69;92.64;100023.84;123466;1099;104434;-78
2022/12/15 03:39:32;;;;;;;28.07;12.93;;;;;;;3.70;92.16;100025.64;123423;1099;104277;-77
2022/12/15 03:42:03;;;;;;;27.90;13.80;;;;;;;3.70;92.35;100017.86;123489;1099;104354;-77
2022/12/15 03:44:34;;;;;;;27.80;12.50;;;;;;;3.71;92.71;100016.15;123465;1099;104435;-76
2022/12/15 03:47:05;;;;;;;26.33;12.30;;;;;;;3.72;92.35;100015.35;123466;1098;104242;-77
2022/12/15 03:49:37;;;;;;;25.80;12.17;;;;;;;3.72;92.81;100007.56;123484;1099;104248;-77
2022/12/15 03:52:08;;;;;;;33.27;13.13;;;;;;;3.72;93.24;100007.56;123525;1098;104347;-77
2022/12/15 03:54:39;;;;;;;30.07;13.03;;;;;;;3.73;92.99;100010.25;123403;1098;104248;-77
2022/12/15 03:57:10;;;;;;;29.93;13.80;;;;;;;3.74;93.16;100011.13;123450;1098;104226;-77
2022/12/15 03:59:41;;;;;;;28.63;13.60;;;;;;;3.76;92.54;100009.53;123409;1099;104335;-77
2022/12/15 04:02:13;;;;;;;28.10;13.60;;;;;;;3.76;92.73;100005.22;123399;1099;104309;-78
2022/12/15 04:04:44;;;;;;;29.60;13.03;;;;;;;3.76;93.15;100006.94;123431;1099;104229;-77
2022/12/15 04:07:15;;;;;;;27.10;13.33;;;;;;;3.76;93.31;100007.82;123466;1099;104255;-78
2022/12/15 04:09:46;;;;;;;27.07;11.73;;;;;;;3.79;93.06;100007.11;123519;1099;104255;-78
2022/12/15 04:12:17;;;;;;;29.67;12.50;;;;;;;3.79;93.87;100004.52;123615;1098;104715;-78
2022/12/15 04:14:49;;;;;;;29.03;13.10;;;;;;;3.80;93.70;100010.58;123460;1099;104277;-78
2022/12/15 04:17:20;;;;;;;28.60;12.50;;;;;;;3.81;93.20;100008.07;123649;1099;104380;-77
2022/12/15 04:20:09;;;;;;;30.13;12.77;;;;;;;3.81;93.33;100015.86;123495;1099;104246;-77
2022/12/15 04:22:42;;;;;;;28.83;11.20;;;;;;;3.82;94.21;100012.47;123496;1099;104248;-77
2022/12/15 05:33:10;;;;;;;33.13;15.87;;;;;;;3.90;95.14;99974.83;123321;1098;104344;-76
2022/12/15 05:35:42;;;;;;;31.30;15.30;;;;;;;3.91;94.84;99976.63;123396;1099;104274;-76
2022/12/15 05:38:13;;;;;;;29.50;14.57;;;;;;;3.92;94.43;99969.72;123486;1099;104361;-77
2022/12/15 05:40:44;;;;;;;32.87;15.53;;;;;;;3.93;94.79;99974.11;123692;1099;104508;-77
2022/12/15 05:43:16;;;;;;;36.27;15.73;;;;;;;3.94;95.78;99970.69;123659;1099;104274;-77
2022/12/15 05:45:47;;;;;;;33.40;15.53;;;;;;;3.95;95.11;99973.36;123465;1099;104230;-77
2022/12/15 05:48:19;;;;;;;33.10;17.03;;;;;;;3.98;95.49;99974.36;123434;1099;104358;-76
2022/12/15 05:50:50;;;;;;;34.13;15.90;;;;;;;3.98;95.03;99969.17;123484;1099;104342;-78
2022/12/15 05:53:21;;;;;;;32.93;16.43;;;;;;;3.99;95.32;99964.06;123537;1099;104274;-78
2022/12/15 05:55:53;;;;;;;32.97;16.57;;;;;;;4.01;95.26;99966.73;123508;1099;104296;-77
2022/12/15 05:58:24;;;;;;;32.83;15.87;;;;;;;4.03;95.32;99973.77;123655;1099;104281;-77
2022/12/15 06:00:55;;;;;;;34.80;17.23;;;;;;;4.05;95.26;99966.07;123684;1099;104243;-77
2022/12/15 06:03:27;;;;;;;36.00;16.60;;;;;;;4.05;95.73;99966.98;123696;1099;104177;-78
2022/12/15 06:05:59;;;;;;;35.43;17.13;;;;;;;4.07;94.90;99965.35;123822;1099;104249;-77
2022/12/15 06:08:31;;;;;;;32.63;15.37;;;;;;;4.10;95.51;99962.92;123594;1099;111626;-76
2022/12/15 06:11:02;;;;;;;34.07;16.50;;;;;;;4.10;95.69;99965.52;124171;1099;102796;-76
2022/12/15 06:13:34;;;;;;;32.93;16.40;;;;;;;4.12;95.46;99969.08;124067;1098;104353;-76
2022/12/15 06:16:10;;;;;;;35.37;16.80;;;;;;;4.16;95.86;99977.02;124144;1099;104321;-76
2022/12/15 06:18:43;;;;;;;33.33;16.50;;;;;;;4.19;96.06;99977.19;124361;1099;105550;-76
2022/12/15 06:21:16;;;;;;;35.93;18.20;;;;;;;4.20;95.71;99972.08;123677;1099;104205;-75
2022/12/15 06:23:48;;;;;;;33.48;17.87;;;;;;;4.23;95.64;99977.43;123513;1099;104329;-76
2022/12/15 06:26:22;;;;;;;36.37;17.50;;;;;;;4.25;95.62;99986.19;124327;1098;104226;-76
2022/12/15 06:28:55;;;;;;;32.90;17.10;;;;;;;4.28;96.28;99985.47;124213;1098;104175;-77
2022/12/15 06:31:27;;;;;;;31.97;15.47;;;;;;;4.30;95.99;99989.94;124188;1099;104277;-77
2022/12/15 06:33:58;;;;;;;31.67;15.87;;;;;;;4.35;96.13;99984.07;124317;1099;104300;-77
2022/12/15 06:36:30;;;;;;;32.23;15.57;;;;;;;4.38;96.70;99982.55;124722;1099;104179;-77
2022/12/15 06:39:03;;;;;;;31.23;15.57;;;;;;;4.42;96.34;99984.47;124847;1099;104227;-77
2022/12/15 06:41:35;;;;;;;31.13;15.53;;;;;;;4.46;96.36;99989.02;124782;1099;104248;-77
2022/12/15 06:44:07;;;;;;;32.17;14.97;;;;;;;4.52;97.16;99988.46;124643;1099;102744;-77
2022/12/15 06:46:38;;;;;;;31.00;15.53;;;;;;;4.55;96.96;99986.02;124774;1099;104271;-76
2022/12/15 06:49:10;;;;;;;32.23;16.33;;;;;;;4.60;96.70;99986.26;124113;1099;104358;-78
2022/12/15 06:51:43;;;;;;;32.90;15.77;;;;;;;4.62;97.03;99987.22;124291;1099;104284;-78
2022/12/15 06:54:15;;;;;;;30.57;16.07;;;;;;;4.66;96.75;99987.45;124598;1099;104249;-78
2022/12/15 06:56:47;;;;;;;30.00;15.80;;;;;;;4.68;96.78;99978.02;124315;1098;104223;-79
2022/12/15 06:59:20;;;;;;;33.30;16.67;;;;;;;4.73;97.04;99986.05;124384;1099;102064;-78
2022/12/15 07:01:51;;;;;;;32.28;16.30;;;;;;;4.75;97.44;99984.41;124661;1099;102018;-79
2022/12/15 07:04:24;;;;;;;30.53;15.87;;;;;;;4.79;97.11;99985.48;124959;1099;104348;-78
2022/12/15 07:06:55;;;;;;;32.23;16.53;;;;;;;4.84;97.13;99994.39;125032;1099;104245;-76
2022/12/15 07:09:36;;;;;;;29.67;15.43;;;;;;;4.86;97.17;99992.75;125287;1098;104284;-78
2022/12/15 07:12:09;;;;;;;30.83;15.83;;;;;;;4.87;97.04;99997.15;124851;1099;104225;-79
2022/12/15 07:14:40;;;;;;;31.60;16.50;;;;;;;4.88;97.29;99996.34;125172;1099;104285;-77
2022/12/15 07:17:15;;;;;;;33.90;17.60;;;;;;;4.90;96.50;99999.02;124965;1099;103389;-80
2022/12/15 07:19:46;;;;;;;36.33;16.80;;;;;;;4.94;98.29;99991.45;124625;1099;104181;-80
2022/12/15 07:22:19;;;;;;;34.00;16.73;;;;;;;4.97;97.86;99986.41;125027;1099;103732;-80
2022/12/15 07:24:50;;;;;;;33.70;16.90;;;;;;;4.99;97.76;99984.77;124907;1099;104226;-80
2022/12/15 07:27:21;;;;;;;30.50;14.73;;;;;;;5.03;97.64;99985.80;125017;1099;103047;-79
2022/12/15 07:29:53;;;;;;;36.93;15.70;;;;;;;5.08;97.46;99973.02;124661;1102;104303;-78
2022/12/15 07:32:24;;;;;;;32.67;15.57;;;;;;;5.12;97.51;99972.37;125073;1098;104277;-77
2022/12/15 07:34:55;;;;;;;31.13;15.23;;;;;;;5.15;98.24;99969.92;124952;1099;104360;-76
2022/12/15 07:37:29;;;;;;;29.43;15.40;;;;;;;5.17;97.84;99965.67;124900;1099;104268;-77
2022/12/15 07:40:01;;;;;;;29.80;15.98;;;;;;;5.18;97.38;99962.27;126444;1099;102248;-76
2022/12/15 07:42:33;;;;;;;30.37;15.67;;;;;;;5.22;99.38;99957.28;125722;1099;102791;-79
2022/12/15 07:45:06;;;;;;;30.30;14.70;;;;;;;5.25;98.25;99960.84;125156;1099;103036;-78
2022/12/15 07:47:38;;;;;;;27.57;14.60;;;;;;;5.28;98.43;99958.39;124693;1102;104050;-77
2022/12/15 07:50:12;;;;;;;27.97;14.43;;;;;;;5.31;99.47;99955.94;125220;1098;102230;-77
2022/12/15 07:52:44;;;;;;;29.00;14.33;;;;;;;5.35;98.93;99950.08;124622;1102;102605;-77
2022/12/15 07:55:16;;;;;;;26.93;13.57;;;;;;;5.38;99.11;99948.50;124956;1099;102611;-77
2022/12/15 07:57:48;;;;;;;31.40;13.87;;;;;;;5.44;100.00;99952.20;124702;1099;103472;-77
2022/12/15 08:00:22;;;;;;;23.87;12.10;;;;;;;5.47;100.00;99952.34;124862;1099;102510;-76
2022/12/15 08:02:53;;;;;;;25.45;12.63;;;;;;;5.48;100.00;99955.02;124602;1102;104188;-79
2022/12/15 08:05:27;;;;;;;25.00;11.70;;;;;;;5.52;100.00;99951.75;125015;1098;104220;-77
2022/12/15 08:08:02;;;;;;;20.55;10.68;;;;;;;5.57;99.89;99954.58;124831;1099;104347;-76
2022/12/15 08:10:34;;;;;;;21.17;11.07;;;;;;;5.62;100.00;99960.00;124965;1098;102359;-77
2022/12/15 08:13:09;;;;;;;21.50;9.80;;;;;;;5.68;100.00;99952.48;124690;1099;104747;-78
2022/12/15 08:15:41;;;;;;;21.50;10.00;;;;;;;5.69;99.92;99947.34;125006;1099;104368;-78
2022/12/15 08:18:13;;;;;;;21.23;10.37;;;;;;;5.72;100.00;99949.20;124709;1099;104216;-78
2022/12/15 08:20:46;;;;;;;19.82;9.95;;;;;;;5.73;99.89;99941.47;125354;1098;103040;-78
2022/12/15 08:23:19;;;;;;;20.97;10.20;;;;;;;5.75;99.85;99945.02;125308;1099;102103;-76
2022/12/15 08:25:51;;;;;;;20.87;10.20;;;;;;;5.80;99.99;99946.92;125278;1099;104248;-78
2022/12/15 08:28:29;;;;;;;24.43;10.13;;;;;;;5.82;99.35;99945.30;124860;1099;104155;-78
2022/12/15 08:31:08;;;;;;;20.60;10.30;;;;;;;5.87;100.00;99939.46;124983;1099;104246;-78
2022/12/15 08:33:40;;;;;;;21.43;11.13;;;;;;;5.92;99.96;99937.06;126768;1098;102463;-74
2022/12/15 08:36:15;;;;;;;21.35;10.35;;;;;;;5.93;99.48;99937.14;124749;1102;104280;-74
2022/12/15 08:38:48;;;;;;;22.67;11.97;;;;;;;5.96;99.29;99941.61;124943;1099;102176;-76
2022/12/15 08:41:22;;;;;;;23.03;11.23;;;;;;;5.97;99.80;99946.03;124377;1102;104203;-76
2022/12/15 08:43:58;;;;;;;21.53;10.30;;;;;;;5.99;99.64;99952.20;125202;1099;102173;-79
2022/12/15 08:46:33;;;;;;;22.32;11.20;;;;;;;5.98;99.50;99949.52;124807;1099;104293;-77
2022/12/15 08:49:05;;;;;;;22.17;11.47;;;;;;;5.98;99.64;99947.80;124652;1099;102084;-76
2022/12/15 08:51:40;;;;;;;24.30;12.53;;;;;;;6.00;99.44;99953.08;124967;1099;102655;-75
2022/12/15 08:54:12;;;;;;;24.37;13.57;;;;;;;6.03;99.60;99946.31;124588;1099;104288;-74
2022/12/15 08:56:46;;;;;;;26.80;13.78;;;;;;;6.06;100.00;99948.14;124802;1099;104182;-75
2022/12/15 08:59:19;;;;;;;31.87;13.73;;;;;;;6.06;98.99;99945.54;125032;1099;104200;-78
2022/12/15 09:01:54;;;;;;;29.50;15.10;;;;;;;6.05;99.30;99944.66;125195;1099;104172;-79
2022/12/15 09:04:26;;;;;;;30.10;14.63;;;;;;;6.08;99.46;99939.59;125192;1099;104211;-77
2022/12/15 09:07:04;;;;;;;27.97;15.43;;;;;;;6.09;99.43;99937.86;124947;1099;104239;-76
2022/12/15 09:09:36;;;;;;;27.70;16.13;;;;;;;6.09;99.21;99940.47;124533;1099;104304;-77
2022/12/15 09:12:13;;;;;;;28.47;14.93;;;;;;;6.09;99.36;99930.96;125014;1099;119427;-77
2022/12/15 09:14:46;;;;;;;30.63;15.07;;;;;;;6.11;99.48;99924.09;124678;1102;102614;-77
2022/12/15 09:17:18;;;;;;;27.97;14.60;;;;;;;6.09;99.19;99924.84;125009;1099;103700;-78
2022/12/15 09:19:51;;;;;;;25.35;13.78;;;;;;;6.07;99.29;99918.68;125021;1099;104220;-76
2022/12/15 09:22:23;;;;;;;27.23;14.27;;;;;;;6.06;99.10;99917.80;124447;1099;104165;-77
2022/12/15 09:24:54;;;;;;;29.63;14.73;;;;;;;6.05;99.91;99912.52;124990;1098;104496;-77
2022/12/15 09:27:28;;;;;;;27.23;13.13;;;;;;;6.03;99.48;99909.84;124485;1102;104261;-78
2022/12/15 09:30:00;;;;;;;24.98;12.98;;;;;;;6.03;99.20;99904.64;124587;1102;102809;-78
2022/12/15 09:32:34;;;;;;;24.20;12.37;;;;;;;6.03;99.58;99898.52;124818;1099;102506;-79
2022/12/15 09:35:07;;;;;;;24.12;12.53;;;;;;;6.08;99.52;99894.42;124799;1099;104388;-77
2022/12/15 09:37:38;;;;;;;24.27;12.80;;;;;;;6.13;99.38;99897.23;125052;1099;104491;-79
2022/12/15 09:40:15;;;;;;;24.03;13.07;;;;;;;6.16;99.69;99894.77;125000;1099;104194;-77
2022/12/15 09:42:52;;;;;;;27.13;13.40;;;;;;;6.19;99.24;99887.08;125218;1099;104364;-81
2022/12/15 09:45:28;;;;;;;24.57;14.03;;;;;;;6.22;99.21;99884.61;125092;1099;104377;-78
2022/12/15 09:48:24;;;;;;;28.63;13.10;;;;;;;6.26;99.75;99879.59;124680;1099;104171;-78
2022/12/15 09:50:58;;;;;;;22.07;11.57;;;;;;;6.28;99.53;99880.55;125261;1099;102604;-76
2022/12/15 09:53:33;;;;;;;22.55;10.80;;;;;;;6.28;99.57;99877.94;125186;1099;103228;-78
2022/12/15 09:56:18;;;;;;;20.27;10.47;;;;;;;6.28;99.62;99869.24;125150;1099;104735;-77
2022/12/15 09:59:00;;;;;;;21.43;10.20;;;;;;;6.28;99.77;99877.94;125233;1099;101986;-78
2022/12/15 10:01:45;;;;;;;22.13;10.23;;;;;;;6.30;99.64;99878.00;125464;1099;103092;-77
2022/12/15 10:04:25;;;;;;;21.27;9.40;;;;;;;6.34;99.82;99874.69;124739;1099;104249;-76
2022/12/15 10:07:07;;;;;;;18.03;8.47;;;;;;;6.35;99.98;99870.38;124679;1099;104093;-76
2022/12/15 10:09:41;;;;;;;20.03;9.57;;;;;;;6.38;99.78;99857.48;125223;1098;102820;-77
2022/12/15 10:12:22;;;;;;;18.80;7.80;;;;;;;6.38;99.93;99858.36;125044;1098;104220;-77
2022/12/15 10:15:03;;;;;;;20.57;8.83;;;;;;;6.42;99.57;99875.01;125000;1099;104198;-75
2022/12/15 10:17:41;;;;;;;20.93;9.30;;;;;;;6.44;99.27;99860.35;124645;1099;104382;-77
2022/12/15 10:20:20;;;;;;;19.07;9.07;;;;;;;6.45;100.00;99865.63;124806;1099;104377;-77
2022/12/15 10:22:54;;;;;;;19.00;8.73;;;;;;;6.39;99.48;99856.64;125346;1099;104281;-76
2022/12/15 10:25:28;;;;;;;21.45;9.53;;;;;;;6.48;100.00;99870.05;125117;1099;104208;-76
2022/12/15 10:28:27;;;;;;;21.20;9.07;;;;;;;6.51;99.89;99867.58;125203;1099;104271;-76
2022/12/15 10:31:02;;;;;;;18.23;9.10;;;;;;;6.56;99.36;99862.55;125028;1099;104220;-76
2022/12/15 10:33:38;;;;;;;19.57;8.33;;;;;;;6.61;99.44;99869.75;126859;1098;102344;-78
2022/12/15 10:36:13;;;;;;;18.93;8.60;;;;;;;6.69;99.52;99866.58;126876;1099;102490;-75
2022/12/15 10:38:47;;;;;;;17.33;8.03;;;;;;;6.74;99.06;99865.92;126828;1098;101885;-76
2022/12/15 10:41:19;;;;;;;;;;;;;;;6.77;99.69;99871.27;126850;1098;101972;-76
2022/12/15 10:43:52;;;;;;;19.20;8.23;;;;;;;6.82;99.36;99876.67;126199;1098;102033;-76
2022/12/15 10:46:27;;;;;;;18.85;9.10;;;;;;;6.81;99.07;99886.22;126785;1099;101962;-77
2022/12/15 10:48:58;;;;;;;;;;;;;;;6.79;98.59;99872.23;126768;1098;101856;-78
2022/12/15 10:51:35;;;;;;;19.47;8.63;;;;;;;6.78;99.05;99867.84;126134;1099;102447;-76
2022/12/15 10:54:21;;;;;;;19.70;9.60;;;;;;;6.78;99.34;99872.18;126642;1099;101886;-76
2022/12/15 10:56:55;;;;;;;25.10;10.67;;;;;;;6.81;99.33;99861.88;126729;1098;103276;-76
2022/12/15 10:59:31;;;;;;;21.02;10.90;;;;;;;6.78;99.05;99867.84;126842;1098;101794;-75
2022/12/15 11:02:25;;;;;;;31.50;11.50;;;;;;;6.76;98.62;99868.59;126795;1099;101992;-77
2022/12/15 11:05:02;;;;;;;22.73;11.00;;;;;;;6.75;98.66;99872.05;126313;1099;111185;-79
2022/12/15 11:07:43;;;;;;;25.03;10.70;;;;;;;6.76;98.75;99884.24;126707;1099;102202;-76
2022/12/15 11:10:23;;;;;;;21.63;10.30;;;;;;;6.75;98.28;99885.09;126357;1099;102113;-76
2022/12/15 11:13:11;;;;;;;22.30;10.90;;;;;;;6.71;98.75;99891.88;126035;1099;102956;-77
2022/12/15 11:15:47;;;;;;;21.17;9.90;;;;;;;6.65;98.63;99902.96;126204;1098;102769;-75
2022/12/15 11:18:37;;;;;;;;;;;;;;;6.62;98.21;99891.48;126672;1099;102616;-76
2022/12/15 11:21:17;;;;;;;21.60;8.70;;;;;;;6.55;98.56;99903.38;126243;1098;102885;-77
2022/12/15 11:23:56;;;;;;;23.43;8.83;;;;;;;6.51;98.23;99892.77;126802;1098;102844;-77
2022/12/15 11:26:40;;;;;;;19.00;8.40;;;;;;;6.46;98.21;99887.36;126758;1099;102060;-77
2022/12/15 11:29:27;;;;;;;17.17;8.13;;;;;;;6.43;98.58;99895.05;126759;1099;101787;-77
2022/12/15 11:32:01;;;;;;;19.10;8.77;;;;;;;6.39;98.88;99911.36;126843;1099;102048;-77
2022/12/15 11:34:39;;;;;;;21.77;8.53;;;;;;;6.36;98.20;99914.75;126764;1099;101917;-76
2022/12/15 11:37:40;;;;;;;19.50;8.57;;;;;;;6.32;98.12;99920.64;126979;1099;102728;-81
2022/12/15 11:40:39;;;;;;;18.20;8.47;;;;;;;6.26;97.48;99929.11;126797;1099;102396;-78
2022/12/15 11:43:27;;;;;;;18.93;8.80;;;;;;;6.25;98.70;99926.43;126841;1098;102951;-77
2022/12/15 11:46:16;;;;;;;18.07;9.10;;;;;;;6.24;98.22;99919.42;126129;1099;110857;-77
2022/12/15 11:49:08;;;;;;;21.17;9.53;;;;;;;6.21;98.53;99925.38;126916;1099;101885;-77
2022/12/15 11:51:44;;;;;;;27.53;10.20;;;;;;;6.20;98.23;99922.71;126743;1099;104222;-77
2022/12/15 11:54:28;;;;;;;20.93;9.40;;;;;;;6.18;98.37;99924.37;126096;1099;102335;-76
2022/12/15 11:57:13;;;;;;;23.27;9.00;;;;;;;6.16;98.43;99931.23;126961;1099;102460;-78
2022/12/15 11:59:52;;;;;;;;;;;;;;;6.13;98.12;99931.09;126858;1098;102559;-80
2022/12/15 12:02:45;;;;;;;23.30;9.60;;;;;;;6.10;98.09;99939.66;126949;1098;101353;-77
2022/12/15 12:05:33;;;;;;;21.13;9.17;;;;;;;6.06;98.30;99936.03;126092;1099;103151;-80
2022/12/15 12:08:20;;;;;;;19.13;9.00;;;;;;;6.03;98.09;99930.69;125082;1099;104178;-77
2022/12/15 12:10:59;;;;;;;20.17;9.40;;;;;;;6.04;98.01;99936.78;125492;1099;103014;-76
2022/12/15 12:13:42;;;;;;;20.70;9.70;;;;;;;6.03;98.00;99940.19;126361;1099;102347;-77
2022/12/15 12:16:40;;;;;;;20.03;8.47;;;;;;;6.00;97.86;99934.84;124970;1099;102224;-79
2022/12/15 12:19:32;;;;;;;16.67;8.30;;;;;;;5.99;98.24;99939.17;125640;1099;103279;-76
2022/12/15 12:22:09;;;;;;;17.13;8.30;;;;;;;5.99;97.96;99943.50;125720;1099;104410;-77
2022/12/15 12:24:49;;;;;;;21.47;9.20;;;;;;;5.97;97.98;99945.13;125305;1099;102550;-79
2022/12/15 12:27:34;;;;;;;22.65;8.80;;;;;;;5.91;97.67;99951.81;125336;1099;104159;-78
2022/12/15 12:30:15;;;;;;;19.77;9.13;;;;;;;5.85;97.65;99964.55;124709;1100;104166;-77
2022/12/15 12:32:54;;;;;;;19.43;9.30;;;;;;;5.85;97.60;99966.27;125230;1099;102235;-78
2022/12/15 12:35:37;;;;;;;19.23;8.40;;;;;;;5.87;97.85;99968.11;124643;1099;103757;-76
2022/12/15 12:38:11;;;;;;;21.43;9.90;;;;;;;5.83;98.06;99965.29;124999;1099;104236;-75
2022/12/15 12:40:59;;;;;;;22.23;10.60;;;;;;;5.80;97.94;99963.45;125231;1099;104263;-75
2022/12/15 12:43:36;;;;;;;22.83;10.00;;;;;;;5.82;98.31;99973.94;124662;1099;102556;-77
2022/12/15 12:46:17;;;;;;;18.87;9.03;;;;;;;5.82;98.09;99990.45;124673;1099;104182;-76
2022/12/15 12:49:03;;;;;;;21.77;9.30;;;;;;;5.82;98.16;99981.76;125107;1099;104243;-76
2022/12/15 12:51:40;;;;;;;21.60;9.47;;;;;;;5.75;97.57;99997.09;124764;1099;104120;-78
2022/12/15 12:54:44;;;;;;;18.23;8.20;;;;;;;5.68;97.34;100001.94;124624;1099;104242;-76
2022/12/15 12:57:44;;;;;;;16.93;7.70;;;;;;;5.64;97.26;99998.30;125217;1099;104245;-76
2022/12/15 13:00:25;;;;;;;17.37;8.10;;;;;;;5.60;97.74;100000.69;124757;1099;103203;-76
2022/12/15 13:03:21;;;;;;;21.93;10.47;;;;;;;5.61;97.72;100005.97;124942;1099;103018;-77
2022/12/15 13:05:56;;;;;;;23.00;11.20;;;;;;;5.60;97.80;100009.38;124767;1099;106130;-77
2022/12/15 13:08:50;;;;;;;20.23;10.33;;;;;;;5.61;97.77;100018.98;124766;1099;103470;-78
2022/12/15 13:12:00;;;;;;;19.70;9.57;;;;;;;5.63;98.09;100022.54;124763;1099;102399;-79
2022/12/15 13:14:51;;;;;;;25.30;10.50;;;;;;;5.54;97.31;100045.52;124875;1099;104304;-77
2022/12/15 13:17:32;;;;;;;25.23;10.50;;;;;;;5.41;97.01;100041.44;125165;1099;104203;-76
2022/12/15 13:20:29;;;;;;;21.60;10.27;;;;;;;5.35;97.20;100052.42;125002;1099;104115;-77
2022/12/15 13:23:42;;;;;;;22.43;10.70;;;;;;;5.30;97.26;100053.92;125258;1099;104264;-78
2022/12/15 13:26:22;;;;;;;21.13;9.73;;;;;;;5.28;97.52;100065.05;125111;1099;104348;-75
2022/12/15 13:28:57;;;;;;;23.67;10.50;;;;;;;5.28;97.38;100055.53;124794;1099;104206;-77
2022/12/15 13:31:48;;;;;;;20.75;10.15;;;;;;;5.24;97.62;100053.61;124792;1099;102497;-76
2022/12/15 13:34:24;;;;;;;20.60;10.60;;;;;;;5.26;97.37;100075.38;124895;1099;103856;-77
2022/12/15 13:37:00;;;;;;;23.73;11.27;;;;;;;5.24;97.43;100079.62;124956;1099;102983;-78
2022/12/15 13:39:58;;;;;;;23.57;11.33;;;;;;;5.24;97.43;100103.04;125226;1099;102450;-76
2022/12/15 13:42:35;;;;;;;26.60;11.87;;;;;;;5.15;96.97;100099.97;124921;1099;104336;-75
2022/12/15 13:45:33;;;;;;;23.93;11.87;;;;;;;5.11;97.79;100092.81;124746;1099;104201;-75
2022/12/15 13:48:27;;;;;;;22.93;11.50;;;;;;;5.13;97.98;100093.80;126095;1099;102279;-75
2022/12/15 13:51:30;;;;;;;23.53;10.93;;;;;;;5.14;97.56;100098.17;126072;1099;102051;-76
2022/12/15 13:54:14;;;;;;;20.37;9.93;;;;;;;5.07;96.82;100109.09;126167;1099;101998;-78
2022/12/15 13:56:55;;;;;;;23.37;10.30;;;;;;;5.00;97.36;100116.58;126163;1099;103396;-78
2022/12/15 13:59:40;;;;;;;23.33;10.73;;;;;;;4.94;96.73;100121.46;126544;1098;102212;-77
2022/12/15 14:02:30;;;;;;;22.20;11.00;;;;;;;4.92;97.15;100115.27;126563;1099;102495;-77
2022/12/15 14:05:19;;;;;;;25.63;11.17;;;;;;;4.88;97.11;100120.22;126240;1098;102082;-76
2022/12/15 14:07:59;;;;;;;23.63;11.97;;;;;;;4.86;97.54;100123.66;126461;1099;102559;-77
2022/12/15 14:10:39;;;;;;;22.73;11.60;;;;;;;4.86;97.14;100128.86;126934;1099;102115;-78
2022/12/15 14:13:18;;;;;;;28.33;12.00;;;;;;;4.74;96.82;100135.13;126123;1099;102156;-76